createdAt,value
2019-06-26T00:12:42.870Z,45.3
2019-06-26T00:28:03.528Z,45.5
2019-06-26T00:43:23.764Z,46.8
2019-06-26T00:58:35.296Z,47.2
2019-06-26T01:14:04.629Z,47.9
2019-06-26T01:29:24.910Z,48.2
2019-06-26T01:44:45.292Z,48.9
2019-06-26T01:59:46.759Z,49.5
2019-06-26T02:15:20.097Z,49.9
2019-06-26T02:30:46.290Z,50.8
2019-06-26T02:46:06.394Z,51
2019-06-26T03:01:26.482Z,51.6
2019-06-26T03:16:31.230Z,52.4
2019-06-26T03:32:04.702Z,52
2019-06-26T03:47:26.684Z,52.7
2019-06-26T04:02:46.792Z,52.5
2019-06-26T04:18:06.954Z,52.1
2019-06-26T04:33:16.086Z,52.2
2019-06-26T04:48:47.519Z,51.5
2019-06-26T05:04:07.684Z,39.9
2019-06-26T05:19:28.241Z,34.9
2019-06-26T05:34:39.489Z,33.4
2019-06-26T05:50:10.155Z,32.1
2019-06-26T06:05:31.212Z,29.7
2019-06-26T06:20:33.870Z,29.1
2019-06-26T06:36:12.220Z,28.6
2019-06-26T06:51:36.490Z,27.5
2019-06-26T07:06:59.124Z,26.2
2019-06-26T07:22:04.993Z,24.1
2019-06-26T07:37:41.283Z,21.6
2019-06-26T07:53:08.219Z,16.8
2019-06-26T08:08:32.295Z,13.9
2019-06-26T08:23:34.003Z,13.1
2019-06-26T08:39:12.772Z,12.9
2019-06-26T08:54:45.275Z,13.1
2019-06-26T09:10:09.935Z,13.5
2019-06-26T09:25:34.897Z,12.4
2019-06-26T09:40:45.729Z,11.9
2019-06-26T09:56:24.682Z,10.9
2019-06-26T10:11:50.658Z,10.8
2019-06-26T10:27:16.393Z,10.9
2019-06-26T10:42:18.733Z,10.6
2019-06-26T10:57:57.534Z,10.2
2019-06-26T11:13:34.246Z,10.6
2019-06-26T11:29:00.860Z,10.2
2019-06-26T11:44:27.094Z,10.2
2019-06-26T11:59:31.333Z,9.8
2019-06-26T12:15:10.706Z,9.9
2019-06-26T12:30:48.666Z,9.7
2019-06-26T12:46:18.585Z,9.6
2019-06-26T13:01:44.293Z,9.6
2019-06-26T13:16:47.535Z,9.4
2019-06-26T13:32:27.494Z,8.8
2019-06-26T13:48:07.527Z,8.6
2019-06-26T14:03:36.955Z,8.2
2019-06-26T14:19:05.469Z,7.7
2019-06-26T14:34:34.129Z,8
2019-06-26T14:49:46.028Z,8
2019-06-26T15:05:26.297Z,8.1
2019-06-26T15:21:00.361Z,8.2
2019-06-26T15:36:29.276Z,8.4
2019-06-26T15:52:15.260Z,8.6
2019-06-26T16:07:26.065Z,8.8
2019-06-26T16:22:44.563Z,8.9
2019-06-26T16:38:22.513Z,9.4
2019-06-26T16:53:50.185Z,9.6
2019-06-26T17:09:17.910Z,10
2019-06-26T17:24:20.469Z,10.1
2019-06-26T17:39:59.303Z,10.6
2019-06-26T17:55:40.700Z,11.4
2019-06-26T18:11:05.740Z,12.3
2019-06-26T18:26:33.227Z,13.2
2019-06-26T18:41:57.384Z,14.5
2019-06-26T18:57:08.237Z,15.8
2019-06-26T19:12:45.717Z,17.1
2019-06-26T19:28:11.706Z,18.1
2019-06-26T19:43:35.832Z,18.8
2019-06-26T19:58:59.718Z,19.4
2019-06-26T20:14:10.896Z,20.4
2019-06-26T20:29:46.549Z,21.1
2019-06-26T20:45:09.719Z,22.5
2019-06-26T21:00:32.603Z,22.7
2019-06-26T21:15:55.281Z,22.4
2019-06-26T21:31:08.483Z,23.3
2019-06-26T21:46:40.156Z,23.7
2019-06-26T22:02:02.777Z,24.1
2019-06-26T22:17:24.851Z,24.9
2019-06-26T22:32:27.525Z,25.2
2019-06-26T22:48:02.097Z,25.8
2019-06-26T23:03:30.069Z,26.6
2019-06-26T23:18:51.580Z,27.2
2019-06-26T23:34:13.029Z,27.9
2019-06-26T23:49:18.594Z,28.7
